sensor_id;sensor_type;location;lat;lon;timestamp;temperature;humidity
5459;DHT22;2752;49.992;8.422;2023-08-01T00:01:27;17.50;96.50
5459;DHT22;2752;49.992;8.422;2023-08-01T00:03:54;17.40;96.40
5459;DHT22;2752;49.992;8.422;2023-08-01T00:06:20;17.40;96.90
5459;DHT22;2752;49.992;8.422;2023-08-01T00:08:47;17.40;96.40
5459;DHT22;2752;49.992;8.422;2023-08-01T00:11:14;17.40;97.00
5459;DHT22;2752;49.992;8.422;2023-08-01T00:13:41;17.40;97.40
5459;DHT22;2752;49.992;8.422;2023-08-01T00:16:10;17.40;97.50
5459;DHT22;2752;49.992;8.422;2023-08-01T00:18:37;17.40;97.90
5459;DHT22;2752;49.992;8.422;2023-08-01T00:21:04;17.50;98.00
5459;DHT22;2752;49.992;8.422;2023-08-01T00:23:34;17.50;98.00
5459;DHT22;2752;49.992;8.422;2023-08-01T00:26:01;17.50;98.00
5459;DHT22;2752;49.992;8.422;2023-08-01T00:28:28;17.70;98.50
5459;DHT22;2752;49.992;8.422;2023-08-01T00:31:02;17.60;97.20
5459;DHT22;2752;49.992;8.422;2023-08-01T00:33:30;17.60;97.20
5459;DHT22;2752;49.992;8.422;2023-08-01T00:35:57;17.60;96.50
5459;DHT22;2752;49.992;8.422;2023-08-01T00:38:23;17.50;97.20
5459;DHT22;2752;49.992;8.422;2023-08-01T00:40:50;17.50;97.30
5459;DHT22;2752;49.992;8.422;2023-08-01T00:43:17;17.50;97.70
5459;DHT22;2752;49.992;8.422;2023-08-01T00:45:45;17.50;98.10
5459;DHT22;2752;49.992;8.422;2023-08-01T00:48:12;17.50;97.90
5459;DHT22;2752;49.992;8.422;2023-08-01T00:50:40;17.50;98.50
5459;DHT22;2752;49.992;8.422;2023-08-01T00:53:07;17.40;98.30
5459;DHT22;2752;49.992;8.422;2023-08-01T00:55:34;17.40;98.90
5459;DHT22;2752;49.992;8.422;2023-08-01T00:58:02;17.40;98.60
5459;DHT22;2752;49.992;8.422;2023-08-01T01:00:29;17.40;98.80
5459;DHT22;2752;49.992;8.422;2023-08-01T01:02:55;17.40;98.70
5459;DHT22;2752;49.992;8.422;2023-08-01T01:05:23;17.40;99.30
5459;DHT22;2752;49.992;8.422;2023-08-01T01:07:52;17.40;99.20
5459;DHT22;2752;49.992;8.422;2023-08-01T01:10:20;17.40;99.00
5459;DHT22;2752;49.992;8.422;2023-08-01T01:12:46;17.40;98.90
5459;DHT22;2752;49.992;8.422;2023-08-01T01:15:15;17.40;99.50
5459;DHT22;2752;49.992;8.422;2023-08-01T01:17:42;17.40;98.80
5459;DHT22;2752;49.992;8.422;2023-08-01T01:20:09;17.40;99.20
5459;DHT22;2752;49.992;8.422;2023-08-01T01:22:38;17.40;99.10
5459;DHT22;2752;49.992;8.422;2023-08-01T01:25:07;17.40;99.80
5459;DHT22;2752;49.992;8.422;2023-08-01T01:27:35;17.40;99.20
5459;DHT22;2752;49.992;8.422;2023-08-01T01:30:05;17.40;99.70
5459;DHT22;2752;49.992;8.422;2023-08-01T01:32:33;17.40;99.60
5459;DHT22;2752;49.992;8.422;2023-08-01T01:35:02;17.40;99.50
5459;DHT22;2752;49.992;8.422;2023-08-01T01:37:29;17.40;99.50
5459;DHT22;2752;49.992;8.422;2023-08-01T01:39:57;17.40;99.50
5459;DHT22;2752;49.992;8.422;2023-08-01T01:42:24;17.40;99.80
5459;DHT22;2752;49.992;8.422;2023-08-01T01:44:50;17.40;99.80
5459;DHT22;2752;49.992;8.422;2023-08-01T01:47:17;17.40;99.90
5459;DHT22;2752;49.992;8.422;2023-08-01T01:49:44;17.50;99.90
5459;DHT22;2752;49.992;8.422;2023-08-01T01:52:10;17.50;99.90
5459;DHT22;2752;49.992;8.422;2023-08-01T01:54:37;17.40;99.50
5459;DHT22;2752;49.992;8.422;2023-08-01T01:57:05;17.50;99.90
5459;DHT22;2752;49.992;8.422;2023-08-01T01:59:32;17.40;99.60
5459;DHT22;2752;49.992;8.422;2023-08-01T02:01:59;17.60;99.70
5459;DHT22;2752;49.992;8.422;2023-08-01T02:04:26;17.50;98.80
5459;DHT22;2752;49.992;8.422;2023-08-01T02:06:52;17.50;98.60
5459;DHT22;2752;49.992;8.422;2023-08-01T02:09:20;17.50;98.50
5459;DHT22;2752;49.992;8.422;2023-08-01T02:11:47;17.50;99.40
5459;DHT22;2752;49.992;8.422;2023-08-01T02:14:15;17.50;98.80
5459;DHT22;2752;49.992;8.422;2023-08-01T02:16:42;17.50;99.10
5459;DHT22;2752;49.992;8.422;2023-08-01T02:19:08;17.40;99.40
5459;DHT22;2752;49.992;8.422;2023-08-01T02:21:35;17.50;99.90
5459;DHT22;2752;49.992;8.422;2023-08-01T02:24:02;17.50;99.90
5459;DHT22;2752;49.992;8.422;2023-08-01T02:26:29;17.50;99.90
5459;DHT22;2752;49.992;8.422;2023-08-01T02:28:55;17.50;99.90
5459;DHT22;2752;49.992;8.422;2023-08-01T02:31:23;17.50;99.90
5459;DHT22;2752;49.992;8.422;2023-08-01T02:33:50;17.50;99.80
5459;DHT22;2752;49.992;8.422;2023-08-01T02:36:17;17.60;99.90
5459;DHT22;2752;49.992;8.422;2023-08-01T02:38:44;17.60;99.60
5459;DHT22;2752;49.992;8.422;2023-08-01T02:41:11;17.60;99.30
5459;DHT22;2752;49.992;8.422;2023-08-01T02:43:37;17.60;99.40
5459;DHT22;2752;49.992;8.422;2023-08-01T02:46:04;17.50;99.60
5459;DHT22;2752;49.992;8.422;2023-08-01T02:48:32;17.50;99.80
5459;DHT22;2752;49.992;8.422;2023-08-01T02:51:00;17.60;99.90
5459;DHT22;2752;49.992;8.422;2023-08-01T02:53:27;17.60;99.00
5459;DHT22;2752;49.992;8.422;2023-08-01T02:55:54;17.60;99.30
5459;DHT22;2752;49.992;8.422;2023-08-01T02:58:21;17.60;99.70
5459;DHT22;2752;49.992;8.422;2023-08-01T03:00:47;17.60;99.90
5459;DHT22;2752;49.992;8.422;2023-08-01T03:03:14;17.60;99.90
5459;DHT22;2752;49.992;8.422;2023-08-01T03:05:42;17.60;99.90
5459;DHT22;2752;49.992;8.422;2023-08-01T03:08:09;17.70;99.90
5459;DHT22;2752;49.992;8.422;2023-08-01T03:10:35;17.60;99.90
5459;DHT22;2752;49.992;8.422;2023-08-01T03:13:02;17.60;99.90
5459;DHT22;2752;49.992;8.422;2023-08-01T03:15:29;17.60;99.90
5459;DHT22;2752;49.992;8.422;2023-08-01T03:17:55;17.70;99.90
5459;DHT22;2752;49.992;8.422;2023-08-01T03:20:22;17.70;99.90
5459;DHT22;2752;49.992;8.422;2023-08-01T03:22:50;17.60;99.90
5459;DHT22;2752;49.992;8.422;2023-08-01T03:25:17;17.60;99.90
5459;DHT22;2752;49.992;8.422;2023-08-01T03:27:43;17.60;99.90
5459;DHT22;2752;49.992;8.422;2023-08-01T03:30:10;17.60;99.90
5459;DHT22;2752;49.992;8.422;2023-08-01T03:32:37;17.60;99.90
5459;DHT22;2752;49.992;8.422;2023-08-01T03:35:04;17.70;99.90
5459;DHT22;2752;49.992;8.422;2023-08-01T03:37:31;17.70;99.90
5459;DHT22;2752;49.992;8.422;2023-08-01T03:39:59;17.70;99.90
5459;DHT22;2752;49.992;8.422;2023-08-01T03:42:26;17.70;99.90
5459;DHT22;2752;49.992;8.422;2023-08-01T03:44:53;17.60;99.90
5459;DHT22;2752;49.992;8.422;2023-08-01T03:47:19;17.70;99.90
5459;DHT22;2752;49.992;8.422;2023-08-01T03:49:46;17.70;99.90
5459;DHT22;2752;49.992;8.422;2023-08-01T03:52:13;17.70;99.90
5459;DHT22;2752;49.992;8.422;2023-08-01T03:54:39;17.80;99.90
5459;DHT22;2752;49.992;8.422;2023-08-01T03:57:07;17.70;99.90
5459;DHT22;2752;49.992;8.422;2023-08-01T03:59:34;17.80;99.60
5459;DHT22;2752;49.992;8.422;2023-08-01T04:02:01;17.70;99.80
5459;DHT22;2752;49.992;8.422;2023-08-01T04:04:27;17.70;99.90
5459;DHT22;2752;49.992;8.422;2023-08-01T04:06:56;17.80;99.90
5459;DHT22;2752;49.992;8.422;2023-08-01T04:09:23;17.80;99.90
5459;DHT22;2752;49.992;8.422;2023-08-01T04:11:49;17.70;99.90
5459;DHT22;2752;49.992;8.422;2023-08-01T04:14:17;17.70;99.90
5459;DHT22;2752;49.992;8.422;2023-08-01T04:16:44;17.70;99.90
5459;DHT22;2752;49.992;8.422;2023-08-01T04:19:10;17.80;99.90
5459;DHT22;2752;49.992;8.422;2023-08-01T04:21:38;17.80;99.90
5459;DHT22;2752;49.992;8.422;2023-08-01T04:24:05;17.80;99.90
5459;DHT22;2752;49.992;8.422;2023-08-01T04:26:31;17.80;99.90
5459;DHT22;2752;49.992;8.422;2023-08-01T04:28:58;17.70;99.90
5459;DHT22;2752;49.992;8.422;2023-08-01T04:31:26;17.80;99.90
5459;DHT22;2752;49.992;8.422;2023-08-01T04:33:52;17.80;99.90
5459;DHT22;2752;49.992;8.422;2023-08-01T04:36:19;17.80;99.80
5459;DHT22;2752;49.992;8.422;2023-08-01T04:38:46;17.90;99.90
5459;DHT22;2752;49.992;8.422;2023-08-01T04:41:12;17.80;98.90
5459;DHT22;2752;49.992;8.422;2023-08-01T04:43:39;17.80;99.30
5459;DHT22;2752;49.992;8.422;2023-08-01T04:46:06;17.80;99.00
5459;DHT22;2752;49.992;8.422;2023-08-01T04:48:34;17.80;98.90
5459;DHT22;2752;49.992;8.422;2023-08-01T04:51:00;17.80;98.90
5459;DHT22;2752;49.992;8.422;2023-08-01T04:53:29;17.80;99.00
5459;DHT22;2752;49.992;8.422;2023-08-01T04:55:56;17.70;98.90
5459;DHT22;2752;49.992;8.422;2023-08-01T04:58:22;17.70;99.10
5459;DHT22;2752;49.992;8.422;2023-08-01T05:00:49;17.70;99.10
5459;DHT22;2752;49.992;8.422;2023-08-01T05:03:16;17.70;98.90
5459;DHT22;2752;49.992;8.422;2023-08-01T05:05:44;17.70;98.50
5459;DHT22;2752;49.992;8.422;2023-08-01T05:08:11;17.70;98.60
5459;DHT22;2752;49.992;8.422;2023-08-01T05:10:38;17.60;97.90
5459;DHT22;2752;49.992;8.422;2023-08-01T05:13:05;17.70;98.60
5459;DHT22;2752;49.992;8.422;2023-08-01T05:15:32;17.60;97.80
5459;DHT22;2752;49.992;8.422;2023-08-01T05:17:59;17.60;98.30
5459;DHT22;2752;49.992;8.422;2023-08-01T05:20:25;17.60;98.60
5459;DHT22;2752;49.992;8.422;2023-08-01T05:22:57;17.60;97.80
5459;DHT22;2752;49.992;8.422;2023-08-01T05:25:24;17.60;98.00
5459;DHT22;2752;49.992;8.422;2023-08-01T05:27:51;17.70;98.40
5459;DHT22;2752;49.992;8.422;2023-08-01T05:30:18;17.70;98.00
5459;DHT22;2752;49.992;8.422;2023-08-01T05:32:44;17.60;98.20
5459;DHT22;2752;49.992;8.422;2023-08-01T05:35:12;17.70;98.60
5459;DHT22;2752;49.992;8.422;2023-08-01T05:37:39;17.70;97.50
5459;DHT22;2752;49.992;8.422;2023-08-01T05:40:08;17.60;96.80
5459;DHT22;2752;49.992;8.422;2023-08-01T05:42:35;17.60;96.50
5459;DHT22;2752;49.992;8.422;2023-08-01T05:45:02;17.60;96.50
5459;DHT22;2752;49.992;8.422;2023-08-01T05:47:30;17.60;96.50
5459;DHT22;2752;49.992;8.422;2023-08-01T05:49:57;17.50;95.40
5459;DHT22;2752;49.992;8.422;2023-08-01T05:52:24;17.50;95.10
5459;DHT22;2752;49.992;8.422;2023-08-01T05:54:50;17.50;94.50
5459;DHT22;2752;49.992;8.422;2023-08-01T05:57:18;17.50;95.10
5459;DHT22;2752;49.992;8.422;2023-08-01T05:59:45;17.50;94.60
5459;DHT22;2752;49.992;8.422;2023-08-01T06:02:12;17.40;94.80
5459;DHT22;2752;49.992;8.422;2023-08-01T06:04:38;17.50;95.60
5459;DHT22;2752;49.992;8.422;2023-08-01T06:07:05;17.50;95.60
5459;DHT22;2752;49.992;8.422;2023-08-01T06:09:32;17.50;95.80
5459;DHT22;2752;49.992;8.422;2023-08-01T06:11:59;17.50;94.70
5459;DHT22;2752;49.992;8.422;2023-08-01T06:14:27;17.50;93.50
5459;DHT22;2752;49.992;8.422;2023-08-01T06:16:54;17.50;93.80
5459;DHT22;2752;49.992;8.422;2023-08-01T06:19:20;17.50;93.60
5459;DHT22;2752;49.992;8.422;2023-08-01T06:21:47;17.50;93.60
5459;DHT22;2752;49.992;8.422;2023-08-01T06:24:14;17.50;93.60
5459;DHT22;2752;49.992;8.422;2023-08-01T06:26:40;17.50;93.70
5459;DHT22;2752;49.992;8.422;2023-08-01T06:29:07;17.50;93.40
5459;DHT22;2752;49.992;8.422;2023-08-01T06:31:35;17.60;93.40
5459;DHT22;2752;49.992;8.422;2023-08-01T06:34:01;17.50;93.40
5459;DHT22;2752;49.992;8.422;2023-08-01T06:36:28;17.50;94.50
5459;DHT22;2752;49.992;8.422;2023-08-01T06:38:55;17.50;93.90
5459;DHT22;2752;49.992;8.422;2023-08-01T06:41:21;17.50;94.30
5459;DHT22;2752;49.992;8.422;2023-08-01T06:43:48;17.60;93.20
5459;DHT22;2752;49.992;8.422;2023-08-01T06:46:15;17.50;92.80
5459;DHT22;2752;49.992;8.422;2023-08-01T06:48:43;17.60;93.40
5459;DHT22;2752;49.992;8.422;2023-08-01T06:51:09;17.60;92.90
5459;DHT22;2752;49.992;8.422;2023-08-01T06:53:36;17.60;92.40
5459;DHT22;2752;49.992;8.422;2023-08-01T06:56:03;17.60;93.90
5459;DHT22;2752;49.992;8.422;2023-08-01T06:58:30;17.70;94.40
5459;DHT22;2752;49.992;8.422;2023-08-01T07:00:57;17.80;94.80
5459;DHT22;2752;49.992;8.422;2023-08-01T07:03:24;17.90;93.60
5459;DHT22;2752;49.992;8.422;2023-08-01T07:05:52;18.10;93.50
5459;DHT22;2752;49.992;8.422;2023-08-01T07:08:18;18.20;90.40
5459;DHT22;2752;49.992;8.422;2023-08-01T07:10:46;18.30;86.90
5459;DHT22;2752;49.992;8.422;2023-08-01T07:13:13;18.40;85.00
5459;DHT22;2752;49.992;8.422;2023-08-01T07:15:42;18.40;83.70
5459;DHT22;2752;49.992;8.422;2023-08-01T07:18:08;18.40;84.90
5459;DHT22;2752;49.992;8.422;2023-08-01T07:20:35;18.40;82.00
5459;DHT22;2752;49.992;8.422;2023-08-01T07:23:03;18.20;71.90
5459;DHT22;2752;49.992;8.422;2023-08-01T07:25:30;18.20;68.90
5459;DHT22;2752;49.992;8.422;2023-08-01T07:27:56;18.10;69.20
5459;DHT22;2752;49.992;8.422;2023-08-01T07:30:23;18.20;70.10
5459;DHT22;2752;49.992;8.422;2023-08-01T07:32:50;18.40;64.60
5459;DHT22;2752;49.992;8.422;2023-08-01T07:35:17;18.40;64.00
5459;DHT22;2752;49.992;8.422;2023-08-01T07:37:43;18.40;63.20
5459;DHT22;2752;49.992;8.422;2023-08-01T07:40:11;18.50;64.10
5459;DHT22;2752;49.992;8.422;2023-08-01T07:42:38;18.50;61.40
5459;DHT22;2752;49.992;8.422;2023-08-01T07:45:06;18.40;64.00
5459;DHT22;2752;49.992;8.422;2023-08-01T07:47:32;18.60;64.10
5459;DHT22;2752;49.992;8.422;2023-08-01T07:49:59;18.70;60.00
5459;DHT22;2752;49.992;8.422;2023-08-01T07:52:26;18.80;61.30
5459;DHT22;2752;49.992;8.422;2023-08-01T07:54:52;18.90;59.90
5459;DHT22;2752;49.992;8.422;2023-08-01T07:57:22;19.10;58.50
5459;DHT22;2752;49.992;8.422;2023-08-01T07:59:49;19.30;64.60
5459;DHT22;2752;49.992;8.422;2023-08-01T08:02:16;19.60;55.30
5459;DHT22;2752;49.992;8.422;2023-08-01T08:04:43;19.80;55.30
5459;DHT22;2752;49.992;8.422;2023-08-01T08:07:09;19.80;59.90
5459;DHT22;2752;49.992;8.422;2023-08-01T08:09:36;20.00;60.60
5459;DHT22;2752;49.992;8.422;2023-08-01T08:12:03;20.20;59.10
5459;DHT22;2752;49.992;8.422;2023-08-01T08:14:31;20.30;47.10
5459;DHT22;2752;49.992;8.422;2023-08-01T08:16:58;20.30;20.20
5459;DHT22;2752;49.992;8.422;2023-08-01T08:19:24;20.20;19.10
5459;DHT22;2752;49.992;8.422;2023-08-01T08:21:51;20.30;17.00
5459;DHT22;2752;49.992;8.422;2023-08-01T08:24:18;20.30;22.00
5459;DHT22;2752;49.992;8.422;2023-08-01T08:26:44;20.30;12.60
5459;DHT22;2752;49.992;8.422;2023-08-01T08:29:11;20.40;16.50
5459;DHT22;2752;49.992;8.422;2023-08-01T08:31:39;20.50;14.80
5459;DHT22;2752;49.992;8.422;2023-08-01T08:34:05;20.70;13.60
5459;DHT22;2752;49.992;8.422;2023-08-01T08:36:32;20.70;6.10
5459;DHT22;2752;49.992;8.422;2023-08-01T08:38:59;20.80;10.00
5459;DHT22;2752;49.992;8.422;2023-08-01T08:41:27;20.80;1.00
5459;DHT22;2752;49.992;8.422;2023-08-01T08:43:56;20.80;1.00
5459;DHT22;2752;49.992;8.422;2023-08-01T08:46:26;20.90;1.30
5459;DHT22;2752;49.992;8.422;2023-08-01T08:48:55;20.90;1.00
5459;DHT22;2752;49.992;8.422;2023-08-01T08:51:24;21.10;1.00
5459;DHT22;2752;49.992;8.422;2023-08-01T08:53:53;21.20;1.00
5459;DHT22;2752;49.992;8.422;2023-08-01T08:56:20;21.40;1.00
5459;DHT22;2752;49.992;8.422;2023-08-01T08:58:48;21.40;1.00
5459;DHT22;2752;49.992;8.422;2023-08-01T09:01:15;21.20;1.00
5459;DHT22;2752;49.992;8.422;2023-08-01T09:03:43;21.40;1.00
5459;DHT22;2752;49.992;8.422;2023-08-01T09:06:14;21.40;1.00
5459;DHT22;2752;49.992;8.422;2023-08-01T09:08:47;21.70;1.00
5459;DHT22;2752;49.992;8.422;2023-08-01T09:11:16;21.80;1.00
5459;DHT22;2752;49.992;8.422;2023-08-01T09:13:42;21.70;1.00
5459;DHT22;2752;49.992;8.422;2023-08-01T09:16:09;21.80;1.00
5459;DHT22;2752;49.992;8.422;2023-08-01T09:18:46;21.70;1.00
5459;DHT22;2752;49.992;8.422;2023-08-01T09:21:17;21.50;1.00
5459;DHT22;2752;49.992;8.422;2023-08-01T09:23:43;21.50;1.00
5459;DHT22;2752;49.992;8.422;2023-08-01T09:26:13;21.60;1.00
5459;DHT22;2752;49.992;8.422;2023-08-01T09:28:39;21.60;1.00
5459;DHT22;2752;49.992;8.422;2023-08-01T09:31:06;21.50;1.00
5459;DHT22;2752;49.992;8.422;2023-08-01T09:33:38;21.50;1.00
5459;DHT22;2752;49.992;8.422;2023-08-01T09:36:06;21.40;1.00
5459;DHT22;2752;49.992;8.422;2023-08-01T09:38:37;21.70;1.00
5459;DHT22;2752;49.992;8.422;2023-08-01T09:41:04;21.80;1.00
5459;DHT22;2752;49.992;8.422;2023-08-01T09:43:34;22.70;1.00
5459;DHT22;2752;49.992;8.422;2023-08-01T09:46:02;22.40;1.00
5459;DHT22;2752;49.992;8.422;2023-08-01T09:48:30;22.70;1.00
5459;DHT22;2752;49.992;8.422;2023-08-01T09:51:07;22.80;1.00
5459;DHT22;2752;49.992;8.422;2023-08-01T09:53:35;22.50;1.00
5459;DHT22;2752;49.992;8.422;2023-08-01T09:56:03;22.80;1.00
5459;DHT22;2752;49.992;8.422;2023-08-01T09:58:32;23.00;1.00
5459;DHT22;2752;49.992;8.422;2023-08-01T10:01:00;23.10;1.00
5459;DHT22;2752;49.992;8.422;2023-08-01T10:03:28;22.50;1.00
5459;DHT22;2752;49.992;8.422;2023-08-01T10:05:55;22.60;1.00
5459;DHT22;2752;49.992;8.422;2023-08-01T10:08:22;22.70;1.00
5459;DHT22;2752;49.992;8.422;2023-08-01T10:10:50;22.80;1.00
5459;DHT22;2752;49.992;8.422;2023-08-01T10:13:20;22.80;1.00
5459;DHT22;2752;49.992;8.422;2023-08-01T10:15:50;22.70;1.00
5459;DHT22;2752;49.992;8.422;2023-08-01T10:18:17;22.80;1.00
5459;DHT22;2752;49.992;8.422;2023-08-01T10:20:44;22.90;1.00
5459;DHT22;2752;49.992;8.422;2023-08-01T10:23:11;23.00;1.00
5459;DHT22;2752;49.992;8.422;2023-08-01T10:25:39;23.20;1.00
5459;DHT22;2752;49.992;8.422;2023-08-01T10:28:07;23.20;1.00
5459;DHT22;2752;49.992;8.422;2023-08-01T10:30:34;23.10;1.00
5459;DHT22;2752;49.992;8.422;2023-08-01T10:33:00;23.00;1.00
5459;DHT22;2752;49.992;8.422;2023-08-01T10:35:34;23.00;1.00
5459;DHT22;2752;49.992;8.422;2023-08-01T10:38:05;23.00;1.00
5459;DHT22;2752;49.992;8.422;2023-08-01T10:40:36;23.10;1.00
5459;DHT22;2752;49.992;8.422;2023-08-01T10:43:03;23.10;1.00
5459;DHT22;2752;49.992;8.422;2023-08-01T10:45:31;23.20;1.00
5459;DHT22;2752;49.992;8.422;2023-08-01T10:48:08;23.10;1.00
5459;DHT22;2752;49.992;8.422;2023-08-01T10:50:35;23.30;1.00
5459;DHT22;2752;49.992;8.422;2023-08-01T10:53:03;23.50;1.00
5459;DHT22;2752;49.992;8.422;2023-08-01T10:55:39;23.40;1.00
5459;DHT22;2752;49.992;8.422;2023-08-01T10:58:05;23.20;1.00
5459;DHT22;2752;49.992;8.422;2023-08-01T11:00:33;22.90;1.00
5459;DHT22;2752;49.992;8.422;2023-08-01T11:03:00;22.80;1.00
5459;DHT22;2752;49.992;8.422;2023-08-01T11:05:27;22.60;1.00
5459;DHT22;2752;49.992;8.422;2023-08-01T11:07:55;22.60;1.00
5459;DHT22;2752;49.992;8.422;2023-08-01T11:10:24;22.60;1.00
5459;DHT22;2752;49.992;8.422;2023-08-01T11:12:51;22.60;1.00
5459;DHT22;2752;49.992;8.422;2023-08-01T11:15:19;22.60;1.00
5459;DHT22;2752;49.992;8.422;2023-08-01T11:17:49;22.90;1.00
5459;DHT22;2752;49.992;8.422;2023-08-01T11:20:17;23.00;1.00
5459;DHT22;2752;49.992;8.422;2023-08-01T11:22:52;23.00;1.00
5459;DHT22;2752;49.992;8.422;2023-08-01T11:25:19;22.90;1.00
5459;DHT22;2752;49.992;8.422;2023-08-01T11:27:46;23.10;1.00
5459;DHT22;2752;49.992;8.422;2023-08-01T11:30:13;23.10;1.00
5459;DHT22;2752;49.992;8.422;2023-08-01T11:32:39;23.30;1.00
5459;DHT22;2752;49.992;8.422;2023-08-01T11:35:08;23.40;1.00
5459;DHT22;2752;49.992;8.422;2023-08-01T11:37:35;23.30;1.00
5459;DHT22;2752;49.992;8.422;2023-08-01T11:40:02;23.40;1.00
5459;DHT22;2752;49.992;8.422;2023-08-01T11:42:32;23.50;1.00
5459;DHT22;2752;49.992;8.422;2023-08-01T11:45:09;23.30;1.00
5459;DHT22;2752;49.992;8.422;2023-08-01T11:47:36;23.50;1.00
5459;DHT22;2752;49.992;8.422;2023-08-01T11:50:03;23.70;1.00
5459;DHT22;2752;49.992;8.422;2023-08-01T11:52:32;23.80;1.00
5459;DHT22;2752;49.992;8.422;2023-08-01T11:54:58;24.00;1.00
5459;DHT22;2752;49.992;8.422;2023-08-01T11:57:25;24.10;1.00
5459;DHT22;2752;49.992;8.422;2023-08-01T11:59:54;23.80;1.00
5459;DHT22;2752;49.992;8.422;2023-08-01T12:02:22;23.60;1.00
5459;DHT22;2752;49.992;8.422;2023-08-01T12:04:50;23.70;1.00
5459;DHT22;2752;49.992;8.422;2023-08-01T12:07:16;23.70;1.00
5459;DHT22;2752;49.992;8.422;2023-08-01T12:09:45;23.60;1.00
5459;DHT22;2752;49.992;8.422;2023-08-01T12:12:21;23.60;1.00
5459;DHT22;2752;49.992;8.422;2023-08-01T12:14:47;23.80;1.00
5459;DHT22;2752;49.992;8.422;2023-08-01T12:17:14;23.80;1.00
5459;DHT22;2752;49.992;8.422;2023-08-01T12:19:40;23.90;1.00
5459;DHT22;2752;49.992;8.422;2023-08-01T12:22:07;24.10;1.00
5459;DHT22;2752;49.992;8.422;2023-08-01T12:24:34;24.20;1.00
5459;DHT22;2752;49.992;8.422;2023-08-01T12:27:05;24.10;1.00
5459;DHT22;2752;49.992;8.422;2023-08-01T12:29:32;24.00;1.00
5459;DHT22;2752;49.992;8.422;2023-08-01T12:31:58;24.10;1.00
5459;DHT22;2752;49.992;8.422;2023-08-01T12:34:26;24.10;1.00
5459;DHT22;2752;49.992;8.422;2023-08-01T12:36:52;23.90;1.00
5459;DHT22;2752;49.992;8.422;2023-08-01T12:39:19;24.00;1.00
5459;DHT22;2752;49.992;8.422;2023-08-01T12:41:46;24.00;1.00
5459;DHT22;2752;49.992;8.422;2023-08-01T12:44:14;23.80;1.00
5459;DHT22;2752;49.992;8.422;2023-08-01T12:46:42;23.80;1.00
5459;DHT22;2752;49.992;8.422;2023-08-01T12:49:09;24.00;1.00
5459;DHT22;2752;49.992;8.422;2023-08-01T12:51:36;24.30;1.00
5459;DHT22;2752;49.992;8.422;2023-08-01T12:54:02;24.30;1.00
5459;DHT22;2752;49.992;8.422;2023-08-01T12:56:29;24.40;1.00
5459;DHT22;2752;49.992;8.422;2023-08-01T12:58:56;24.50;1.00
5459;DHT22;2752;49.992;8.422;2023-08-01T13:01:24;24.30;1.00
5459;DHT22;2752;49.992;8.422;2023-08-01T13:03:50;24.20;1.00
5459;DHT22;2752;49.992;8.422;2023-08-01T13:06:17;24.00;1.00
5459;DHT22;2752;49.992;8.422;2023-08-01T13:08:44;24.10;1.00
5459;DHT22;2752;49.992;8.422;2023-08-01T13:11:11;24.20;1.00
5459;DHT22;2752;49.992;8.422;2023-08-01T13:13:40;24.10;1.00
5459;DHT22;2752;49.992;8.422;2023-08-01T13:16:07;24.10;1.00
5459;DHT22;2752;49.992;8.422;2023-08-01T13:18:35;24.10;1.00
5459;DHT22;2752;49.992;8.422;2023-08-01T13:21:08;23.80;1.00
5459;DHT22;2752;49.992;8.422;2023-08-01T13:23:35;23.70;1.00
5459;DHT22;2752;49.992;8.422;2023-08-01T13:26:02;23.60;1.00
5459;DHT22;2752;49.992;8.422;2023-08-01T13:28:28;23.60;1.00
5459;DHT22;2752;49.992;8.422;2023-08-01T13:30:55;23.50;1.00
5459;DHT22;2752;49.992;8.422;2023-08-01T13:33:21;23.50;1.00
5459;DHT22;2752;49.992;8.422;2023-08-01T13:35:52;23.30;1.00
5459;DHT22;2752;49.992;8.422;2023-08-01T13:38:19;23.30;1.00
5459;DHT22;2752;49.992;8.422;2023-08-01T13:40:46;23.40;1.00
5459;DHT22;2752;49.992;8.422;2023-08-01T13:43:12;23.50;1.00
5459;DHT22;2752;49.992;8.422;2023-08-01T13:45:39;23.60;1.00
5459;DHT22;2752;49.992;8.422;2023-08-01T13:48:06;23.60;1.00
5459;DHT22;2752;49.992;8.422;2023-08-01T13:50:33;23.50;1.00
5459;DHT22;2752;49.992;8.422;2023-08-01T13:53:01;23.40;1.00
5459;DHT22;2752;49.992;8.422;2023-08-01T13:55:27;23.40;1.00
5459;DHT22;2752;49.992;8.422;2023-08-01T13:57:54;23.40;1.00
5459;DHT22;2752;49.992;8.422;2023-08-01T14:00:21;23.20;1.00
5459;DHT22;2752;49.992;8.422;2023-08-01T14:02:49;22.90;1.00
5459;DHT22;2752;49.992;8.422;2023-08-01T14:05:16;22.70;1.00
5459;DHT22;2752;49.992;8.422;2023-08-01T14:07:42;22.40;1.00
5459;DHT22;2752;49.992;8.422;2023-08-01T14:10:11;22.10;1.00
5459;DHT22;2752;49.992;8.422;2023-08-01T14:12:37;21.90;1.00
5459;DHT22;2752;49.992;8.422;2023-08-01T14:15:05;21.80;1.00
5459;DHT22;2752;49.992;8.422;2023-08-01T14:17:32;21.70;1.00
5459;DHT22;2752;49.992;8.422;2023-08-01T14:19:59;21.80;1.00
5459;DHT22;2752;49.992;8.422;2023-08-01T14:22:25;21.90;1.00
5459;DHT22;2752;49.992;8.422;2023-08-01T14:24:52;21.90;1.00
5459;DHT22;2752;49.992;8.422;2023-08-01T14:27:20;21.80;1.00
5459;DHT22;2752;49.992;8.422;2023-08-01T14:29:47;21.70;1.00
5459;DHT22;2752;49.992;8.422;2023-08-01T14:32:16;21.70;1.00
5459;DHT22;2752;49.992;8.422;2023-08-01T14:34:42;21.70;1.00
5459;DHT22;2752;49.992;8.422;2023-08-01T14:37:09;21.50;1.00
5459;DHT22;2752;49.992;8.422;2023-08-01T14:39:35;21.40;1.00
5459;DHT22;2752;49.992;8.422;2023-08-01T14:42:02;21.30;1.00
5459;DHT22;2752;49.992;8.422;2023-08-01T14:44:30;21.30;1.00
5459;DHT22;2752;49.992;8.422;2023-08-01T14:46:57;21.10;1.00
5459;DHT22;2752;49.992;8.422;2023-08-01T14:49:24;21.10;1.00
5459;DHT22;2752;49.992;8.422;2023-08-01T14:51:53;21.10;1.00
5459;DHT22;2752;49.992;8.422;2023-08-01T14:54:19;21.50;1.00
5459;DHT22;2752;49.992;8.422;2023-08-01T14:56:46;21.80;1.00
5459;DHT22;2752;49.992;8.422;2023-08-01T14:59:13;22.00;1.00
5459;DHT22;2752;49.992;8.422;2023-08-01T15:01:41;22.00;1.00
5459;DHT22;2752;49.992;8.422;2023-08-01T15:04:07;22.10;1.00
5459;DHT22;2752;49.992;8.422;2023-08-01T15:06:34;22.10;1.00
5459;DHT22;2752;49.992;8.422;2023-08-01T15:09:01;22.20;1.00
5459;DHT22;2752;49.992;8.422;2023-08-01T15:11:27;22.20;1.00
5459;DHT22;2752;49.992;8.422;2023-08-01T15:13:54;22.20;1.00
5459;DHT22;2752;49.992;8.422;2023-08-01T15:16:21;22.10;1.00
5459;DHT22;2752;49.992;8.422;2023-08-01T15:18:49;22.20;1.00
5459;DHT22;2752;49.992;8.422;2023-08-01T15:21:15;22.00;1.00
5459;DHT22;2752;49.992;8.422;2023-08-01T15:23:42;21.80;1.00
5459;DHT22;2752;49.992;8.422;2023-08-01T15:26:08;21.80;1.00
5459;DHT22;2752;49.992;8.422;2023-08-01T15:28:35;21.40;1.00
5459;DHT22;2752;49.992;8.422;2023-08-01T15:31:03;21.20;1.00
5459;DHT22;2752;49.992;8.422;2023-08-01T15:33:31;21.10;1.00
5459;DHT22;2752;49.992;8.422;2023-08-01T15:36:02;21.00;1.00
5459;DHT22;2752;49.992;8.422;2023-08-01T15:38:31;21.00;1.00
5459;DHT22;2752;49.992;8.422;2023-08-01T15:40:57;20.90;1.00
5459;DHT22;2752;49.992;8.422;2023-08-01T15:43:27;20.80;1.00
5459;DHT22;2752;49.992;8.422;2023-08-01T15:45:55;20.60;1.00
5459;DHT22;2752;49.992;8.422;2023-08-01T15:48:22;20.50;1.00
5459;DHT22;2752;49.992;8.422;2023-08-01T15:50:49;20.40;1.00
5459;DHT22;2752;49.992;8.422;2023-08-01T15:53:17;20.30;1.00
5459;DHT22;2752;49.992;8.422;2023-08-01T15:55:44;20.50;1.00
5459;DHT22;2752;49.992;8.422;2023-08-01T15:58:10;20.50;1.00
5459;DHT22;2752;49.992;8.422;2023-08-01T16:00:37;20.50;1.00
5459;DHT22;2752;49.992;8.422;2023-08-01T16:03:04;20.60;1.00
5459;DHT22;2752;49.992;8.422;2023-08-01T16:05:31;20.70;1.00
5459;DHT22;2752;49.992;8.422;2023-08-01T16:07:58;20.80;1.00
5459;DHT22;2752;49.992;8.422;2023-08-01T16:10:26;20.90;1.00